Time;durP1;ratioP1;P1;durP2;ratioP2;P2;SDS_P1;SDS_P2;PMS_P1;PMS_P2;Temp;Humidity;BMP_temperature;BMP_pressure;BME280_temperature;BME280_humidity;BME280_pressure;Samples;Min_cycle;Max_cycle;Signal;HPM_P1;HPM_P2
2022/05/30 00:01:15;;;;;;;3.13;1.50;;;12.70;99.90;;;;;;7388537;19;20123;-71
2022/05/30 00:03:41;;;;;;;2.17;1.43;;;12.70;99.90;;;;;;7393969;19;20151;-72
2022/05/30 00:06:13;;;;;;;2.23;1.50;;;12.50;99.90;;;;;;7393880;19;20154;-72
2022/05/30 00:08:39;;;;;;;3.30;1.83;;;12.40;99.90;;;;;;7396048;19;20910;-79
2022/05/30 00:11:07;;;;;;;2.57;1.63;;;12.50;99.90;;;;;;7395007;19;20149;-79
2022/05/30 00:13:34;;;;;;;1.93;1.57;;;12.20;99.90;;;;;;7394089;19;20164;-79
2022/05/30 00:16:15;;;;;;;2.58;1.73;;;12.30;99.90;;;;;;7396755;19;20154;-72
2022/05/30 00:18:42;;;;;;;2.63;1.57;;;12.40;99.90;;;;;;7392398;19;20138;-79
2022/05/30 00:21:08;;;;;;;3.00;1.43;;;12.30;99.90;;;;;;7394490;19;20665;-80
2022/05/30 00:23:33;;;;;;;1.40;1.30;;;12.40;99.90;;;;;;7401371;19;20143;-71
2022/05/30 00:25:59;;;;;;;3.10;1.40;;;12.50;99.90;;;;;;7393613;19;20143;-71
2022/05/30 00:28:25;;;;;;;3.50;1.30;;;12.60;99.90;;;;;;7394295;19;20149;-78
2022/05/30 00:30:51;;;;;;;2.03;1.60;;;12.70;99.90;;;;;;7394025;19;20614;-72
2022/05/30 00:33:18;;;;;;;1.90;1.23;;;12.70;99.90;;;;;;7391603;19;20142;-78
2022/05/30 00:35:45;;;;;;;1.77;1.30;;;12.60;99.90;;;;;;7394120;19;20130;-72
2022/05/30 00:38:11;;;;;;;1.80;1.43;;;12.70;99.90;;;;;;7392066;19;20151;-71
2022/05/30 00:40:39;;;;;;;4.43;1.63;;;12.70;99.90;;;;;;7393486;19;20146;-76
2022/05/30 00:43:25;;;;;;;3.55;1.58;;;12.50;99.90;;;;;;7398318;19;20126;-79
2022/05/30 00:45:52;;;;;;;1.50;1.27;;;12.20;99.90;;;;;;7391747;19;20640;-72
2022/05/30 00:48:21;;;;;;;1.50;1.30;;;12.10;99.90;;;;;;7397257;19;20137;-72
2022/05/30 00:50:50;;;;;;;3.20;1.47;;;12.30;99.90;;;;;;7394984;19;20130;-80
2022/05/30 00:53:16;;;;;;;1.57;1.43;;;12.40;99.90;;;;;;7393116;19;20146;-79
2022/05/30 00:55:43;;;;;;;2.00;1.53;;;12.40;99.90;;;;;;7395048;19;20497;-72
2022/05/30 00:58:11;;;;;;;1.70;1.40;;;12.30;99.90;;;;;;7394556;19;20147;-75
2022/05/30 01:00:37;;;;;;;2.10;1.70;;;12.30;99.90;;;;;;7398757;19;20155;-78
2022/05/30 01:08:33;;;;;;;1.80;1.20;;;12.40;99.90;;;;;;7392193;19;20130;-77
2022/05/30 01:10:59;;;;;;;2.77;1.33;;;12.40;99.90;;;;;;7391580;19;20142;-79
2022/05/30 01:13:27;;;;;;;2.33;1.40;;;12.50;99.90;;;;;;7398621;19;20160;-71
2022/05/30 01:15:54;;;;;;;2.60;1.60;;;12.40;99.90;;;;;;7393291;19;20138;-72
2022/05/30 01:18:34;;;;;;;1.73;1.30;;;12.40;99.90;;;;;;7390653;19;20142;-74
2022/05/30 01:21:34;;;;;;;1.50;1.30;;;12.30;99.90;;;;;;7389816;19;20150;-79
2022/05/30 01:24:15;;;;;;;1.60;1.40;;;12.20;99.90;;;;;;7392883;19;20154;-78
2022/05/30 01:26:54;;;;;;;1.77;1.30;;;12.00;99.90;;;;;;7392795;19;20190;-79
2022/05/30 01:29:29;;;;;;;1.50;1.40;;;11.90;99.90;;;;;;7392606;19;20209;-72
2022/05/30 01:31:55;;;;;;;2.20;1.33;;;12.00;99.90;;;;;;7392579;19;20593;-79
2022/05/30 01:34:26;;;;;;;2.33;1.33;;;11.90;99.90;;;;;;7392105;19;20139;-72
2022/05/30 01:36:52;;;;;;;2.60;1.40;;;11.70;99.90;;;;;;7388925;19;20198;-73
2022/05/30 01:39:18;;;;;;;1.47;1.13;;;11.80;99.90;;;;;;7390236;19;20138;-79
2022/05/30 01:41:44;;;;;;;2.80;1.37;;;11.90;99.90;;;;;;7390984;19;20210;-71
2022/05/30 01:44:10;;;;;;;2.13;1.37;;;11.90;99.90;;;;;;7397123;19;20202;-79
2022/05/30 01:46:36;;;;;;;8.17;1.60;;;12.00;99.90;;;;;;7392001;19;20578;-72
2022/05/30 01:49:02;;;;;;;1.30;1.20;;;11.90;99.90;;;;;;7394692;19;20134;-78
2022/05/30 01:51:28;;;;;;;1.57;1.40;;;11.90;99.90;;;;;;7388330;19;20126;-71
2022/05/30 01:53:54;;;;;;;3.13;1.30;;;11.90;99.90;;;;;;7394500;19;20502;-79
2022/05/30 01:56:21;;;;;;;2.47;1.50;;;12.00;99.90;;;;;;7389603;19;20158;-78
2022/05/30 01:58:47;;;;;;;2.43;1.40;;;12.10;99.90;;;;;;7391079;19;20122;-74
2022/05/30 02:01:20;;;;;;;2.63;1.30;;;12.00;99.90;;;;;;7395659;19;20146;-79
2022/05/30 02:03:47;;;;;;;3.30;1.40;;;12.00;99.90;;;;;;7388821;19;20150;-73
2022/05/30 02:06:13;;;;;;;1.60;1.50;;;12.00;99.90;;;;;;7388135;19;20142;-72
2022/05/30 02:08:39;;;;;;;5.60;1.37;;;12.00;99.90;;;;;;7389786;19;20210;-77
2022/05/30 02:11:08;;;;;;;1.53;1.23;;;12.00;99.90;;;;;;7395088;19;20138;-78
2022/05/30 02:13:34;;;;;;;2.30;1.70;;;11.80;99.90;;;;;;7391209;19;20137;-72
2022/05/30 02:18:47;;;;;;;1.90;1.30;;;11.90;99.90;;;;;;7394036;19;20164;-79
2022/05/30 02:21:13;;;;;;;2.10;1.23;;;11.70;99.90;;;;;;7386551;19;20499;-72
2022/05/30 02:23:39;;;;;;;2.13;1.33;;;11.80;99.90;;;;;;7394266;19;20246;-72
2022/05/30 02:26:05;;;;;;;1.77;1.40;;;11.80;99.90;;;;;;7390391;19;20141;-78
2022/05/30 02:28:30;;;;;;;2.83;1.27;;;11.80;99.90;;;;;;7390962;19;20131;-80
2022/05/30 02:30:57;;;;;;;1.53;1.30;;;11.80;99.90;;;;;;7392199;19;20530;-72
2022/05/30 02:38:51;;;;;;;2.23;1.40;;;11.60;99.90;;;;;;7390529;19;20147;-79
2022/05/30 02:41:18;;;;;;;2.80;1.30;;;11.70;99.90;;;;;;7388179;19;20139;-72
2022/05/30 02:43:44;;;;;;;2.80;1.33;;;11.60;99.90;;;;;;7391926;19;20142;-78
2022/05/30 02:46:10;;;;;;;2.33;1.40;;;11.70;99.90;;;;;;7390904;19;20154;-79
2022/05/30 02:48:36;;;;;;;3.80;1.43;;;11.70;99.90;;;;;;7395699;19;20134;-71
2022/05/30 02:51:02;;;;;;;4.07;1.63;;;11.60;99.90;;;;;;7392301;19;20135;-72
2022/05/30 02:53:28;;;;;;;2.47;1.60;;;11.40;99.90;;;;;;7391529;19;20198;-79
2022/05/30 02:55:54;;;;;;;1.93;1.30;;;11.40;99.90;;;;;;7388208;19;20142;-72
2022/05/30 02:58:20;;;;;;;1.93;1.30;;;11.50;99.90;;;;;;7389372;19;20596;-73
2022/05/30 03:00:46;;;;;;;2.00;1.30;;;11.50;99.90;;;;;;7388480;19;20221;-71
2022/05/30 03:03:12;;;;;;;3.27;1.40;;;11.50;99.90;;;;;;7392667;19;20147;-71
2022/05/30 03:05:38;;;;;;;2.73;1.90;;;11.50;99.90;;;;;;7392364;19;20665;-71
2022/05/30 03:08:06;;;;;;;3.77;1.47;;;11.50;99.90;;;;;;7390373;19;20150;-78
2022/05/30 03:10:32;;;;;;;2.67;1.90;;;11.40;99.90;;;;;;7387398;19;20159;-71
2022/05/30 03:12:58;;;;;;;3.87;1.57;;;11.40;99.90;;;;;;7388625;19;20158;-71
2022/05/30 03:15:24;;;;;;;4.13;1.67;;;11.40;99.90;;;;;;7391150;19;20150;-72
2022/05/30 03:17:51;;;;;;;4.27;1.73;;;11.40;99.90;;;;;;7388969;19;20154;-72
2022/05/30 03:20:18;;;;;;;3.27;1.70;;;11.30;99.90;;;;;;7386099;19;20145;-79
2022/05/30 03:22:44;;;;;;;4.67;1.90;;;11.40;99.90;;;;;;7392930;19;20131;-80
2022/05/30 03:25:10;;;;;;;3.87;1.87;;;11.40;99.90;;;;;;7388710;19;20143;-80
2022/05/30 03:27:36;;;;;;;1.70;1.43;;;11.50;99.90;;;;;;7388415;19;20657;-80
2022/05/30 03:30:03;;;;;;;2.80;1.67;;;11.60;99.90;;;;;;7388522;19;20126;-71
2022/05/30 03:32:31;;;;;;;1.87;1.53;;;11.70;99.90;;;;;;7388152;19;20159;-78
2022/05/30 03:34:57;;;;;;;2.10;1.70;;;11.70;99.90;;;;;;7390695;19;20135;-71
2022/05/30 03:37:23;;;;;;;2.67;1.60;;;11.60;99.90;;;;;;7390560;19;20629;-72
2022/05/30 03:39:49;;;;;;;3.73;1.77;;;11.60;99.90;;;;;;7401117;19;20139;-73
2022/05/30 03:42:15;;;;;;;3.90;1.90;;;11.60;99.90;;;;;;7396127;19;20135;-72
2022/05/30 03:44:41;;;;;;;2.50;1.60;;;11.60;99.90;;;;;;7396415;19;20147;-77
2022/05/30 03:47:08;;;;;;;4.80;2.00;;;11.60;99.90;;;;;;7394894;19;20205;-72
2022/05/30 03:49:34;;;;;;;1.80;1.43;;;11.60;99.90;;;;;;7395280;19;20134;-71
2022/05/30 03:52:03;;;;;;;2.73;1.53;;;11.60;99.90;;;;;;7395172;19;20167;-72
2022/05/30 03:54:28;;;;;;;1.60;1.40;;;11.50;99.90;;;;;;7395602;19;20251;-80
2022/05/30 03:56:54;;;;;;;2.03;1.50;;;11.40;99.90;;;;;;7402503;19;20618;-70
2022/05/30 03:59:20;;;;;;;2.97;1.77;;;11.30;99.90;;;;;;7402033;19;20135;-78
2022/05/30 04:01:46;;;;;;;3.27;1.60;;;11.40;99.90;;;;;;7392021;19;20184;-79
2022/05/30 04:04:13;;;;;;;3.63;1.80;;;11.40;99.90;;;;;;7392171;19;20197;-79
2022/05/30 04:06:40;;;;;;;2.40;1.67;;;11.50;99.90;;;;;;7393227;19;20134;-72
2022/05/30 04:09:07;;;;;;;3.47;1.93;;;11.40;99.90;;;;;;7395309;19;20143;-80
2022/05/30 04:11:34;;;;;;;1.80;1.53;;;11.30;99.90;;;;;;7392129;19;20150;-79
2022/05/30 04:14:00;;;;;;;3.20;1.47;;;11.20;99.90;;;;;;7400400;19;20172;-72
2022/05/30 04:16:25;;;;;;;3.83;1.80;;;11.30;99.90;;;;;;7395987;19;20154;-72
2022/05/30 04:18:51;;;;;;;1.83;1.60;;;11.40;99.90;;;;;;7394181;19;20147;-78
2022/05/30 04:21:17;;;;;;;2.70;1.67;;;11.50;99.90;;;;;;7394205;19;20213;-73
2022/05/30 04:23:43;;;;;;;5.50;1.90;;;11.60;99.90;;;;;;7393670;19;20142;-71
2022/05/30 04:26:13;;;;;;;2.23;1.57;;;11.70;99.90;;;;;;7395706;19;20138;-72
2022/05/30 04:28:40;;;;;;;2.10;1.67;;;11.50;99.90;;;;;;7393577;19;20139;-71
2022/05/30 04:31:11;;;;;;;4.17;2.00;;;11.50;99.90;;;;;;7401749;19;20222;-77
2022/05/30 04:33:38;;;;;;;2.80;1.70;;;11.00;99.90;;;;;;7395011;19;20130;-71
2022/05/30 04:36:07;;;;;;;4.23;1.77;;;10.70;99.90;;;;;;7393926;19;20569;-74
2022/05/30 04:38:33;;;;;;;1.77;1.60;;;11.00;99.90;;;;;;7396078;19;20578;-72
2022/05/30 04:40:59;;;;;;;4.00;1.97;;;11.10;99.90;;;;;;7393279;19;20587;-71
2022/05/30 04:43:25;;;;;;;3.07;2.10;;;11.20;99.90;;;;;;7393110;19;20137;-80
2022/05/30 04:46:13;;;;;;;3.73;1.80;;;11.40;99.90;;;;;;7397205;19;20541;-80
2022/05/30 04:48:39;;;;;;;2.83;2.00;;;11.30;99.90;;;;;;7397207;19;20142;-72
2022/05/30 04:51:05;;;;;;;3.00;1.87;;;11.30;99.90;;;;;;7393312;19;20127;-72
2022/05/30 04:53:32;;;;;;;3.53;1.77;;;11.40;99.90;;;;;;7394444;19;20134;-73
2022/05/30 04:55:58;;;;;;;1.83;1.73;;;11.30;99.90;;;;;;7392926;19;20127;-80
2022/05/30 04:58:24;;;;;;;4.53;2.43;;;11.40;99.90;;;;;;7389367;19;20139;-72
2022/05/30 05:00:57;;;;;;;4.63;2.10;;;11.40;99.90;;;;;;7395308;19;20131;-80
2022/05/30 05:03:22;;;;;;;4.67;2.87;;;11.50;99.90;;;;;;7395554;19;20150;-77
2022/05/30 05:05:48;;;;;;;3.47;2.27;;;11.60;99.90;;;;;;7395995;19;20145;-71
2022/05/30 05:08:17;;;;;;;2.63;2.40;;;11.50;99.90;;;;;;7392989;19;20162;-71
2022/05/30 05:11:20;;;;;;;4.50;2.57;;;11.60;99.90;;;;;;7394042;19;20697;-71
2022/05/30 05:13:46;;;;;;;3.83;2.40;;;11.60;99.90;;;;;;7391374;19;20138;-70
2022/05/30 05:16:13;;;;;;;4.97;2.63;;;11.60;99.90;;;;;;7392755;19;20609;-79
2022/05/30 05:18:39;;;;;;;6.50;3.10;;;11.60;99.90;;;;;;7389865;19;20875;-72
2022/05/30 05:21:05;;;;;;;3.60;2.50;;;11.40;99.90;;;;;;7392575;19;20159;-80
2022/05/30 05:23:32;;;;;;;3.30;2.50;;;11.40;99.90;;;;;;7390068;19;20242;-71
2022/05/30 05:25:58;;;;;;;5.50;2.20;;;11.40;99.90;;;;;;7391827;19;20149;-80
2022/05/30 05:28:24;;;;;;;3.70;2.50;;;11.30;99.90;;;;;;7391505;19;20138;-71
2022/05/30 05:30:49;;;;;;;3.67;2.83;;;11.40;99.90;;;;;;7393283;19;20484;-79
2022/05/30 05:33:18;;;;;;;4.73;2.70;;;11.40;99.90;;;;;;7390661;19;20498;-74
2022/05/30 05:35:45;;;;;;;5.90;2.70;;;11.40;99.90;;;;;;7390307;19;20147;-70
2022/05/30 05:38:12;;;;;;;3.80;2.67;;;11.50;99.90;;;;;;7389838;19;20159;-74
2022/05/30 05:40:39;;;;;;;3.80;2.40;;;11.50;99.90;;;;;;7393108;19;20598;-69
2022/05/30 05:43:05;;;;;;;3.23;2.47;;;11.60;99.90;;;;;;7388425;19;20158;-70
2022/05/30 05:45:34;;;;;;;3.50;2.70;;;11.60;99.90;;;;;;7389270;19;20197;-75
2022/05/30 05:48:00;;;;;;;3.47;2.67;;;11.70;99.90;;;;;;7392466;19;20194;-69
2022/05/30 05:50:26;;;;;;;4.43;2.67;;;11.70;99.90;;;;;;7391006;19;20177;-69
2022/05/30 05:52:53;;;;;;;5.83;2.60;;;11.80;99.90;;;;;;7389346;19;20135;-73
2022/05/30 05:55:22;;;;;;;4.47;2.60;;;11.70;99.90;;;;;;7390710;19;20621;-75
2022/05/30 05:57:48;;;;;;;5.33;3.33;;;11.70;99.90;;;;;;7392752;19;20134;-69
2022/05/30 06:00:15;;;;;;;4.83;2.70;;;11.70;99.90;;;;;;7388224;19;20135;-71
2022/05/30 06:02:41;;;;;;;5.37;2.63;;;11.70;99.90;;;;;;7391286;19;20147;-74
2022/05/30 06:05:09;;;;;;;3.20;2.90;;;11.80;99.90;;;;;;7393411;19;20501;-75
2022/05/30 06:07:37;;;;;;;4.40;2.80;;;11.90;99.90;;;;;;7391262;19;20164;-73
2022/05/30 06:10:05;;;;;;;5.70;3.33;;;11.90;99.90;;;;;;7391810;19;20134;-73
2022/05/30 06:12:34;;;;;;;3.37;2.80;;;12.10;99.90;;;;;;7391552;19;20141;-73
2022/05/30 06:15:00;;;;;;;4.27;2.87;;;12.50;99.90;;;;;;7389280;19;20197;-75
2022/05/30 06:17:25;;;;;;;4.47;2.80;;;13.70;99.90;;;;;;7387241;19;20167;-72
2022/05/30 06:19:52;;;;;;;3.20;2.77;;;15.00;99.90;;;;;;7391931;19;20142;-73
2022/05/30 06:22:18;;;;;;;3.37;2.57;;;15.10;99.90;;;;;;7388542;19;20509;-72
2022/05/30 06:24:44;;;;;;;3.00;2.13;;;15.80;99.90;;;;;;7385356;19;20158;-74
2022/05/30 06:27:15;;;;;;;4.07;2.47;;;16.60;99.90;;;;;;7385511;19;20131;-74
2022/05/30 06:29:40;;;;;;;3.75;3.03;;;17.50;99.90;;;;;;7388687;19;20147;-73
2022/05/30 06:32:07;;;;;;;8.73;3.45;;;17.60;99.90;;;;;;7387469;19;20143;-75
2022/05/30 06:34:32;;;;;;;5.28;3.10;;;17.20;99.90;;;;;;7387998;19;20181;-72
2022/05/30 06:36:58;;;;;;;3.80;3.22;;;17.30;99.90;;;;;;7391000;19;20897;-75
2022/05/30 06:39:26;;;;;;;4.90;3.25;;;17.30;99.90;;;;;;7387057;19;20735;-75
2022/05/30 06:41:52;;;;;;;5.77;3.53;;;17.30;99.90;;;;;;7386573;19;20138;-75
2022/05/30 06:44:18;;;;;;;4.85;2.88;;;17.30;99.90;;;;;;7388598;19;20156;-75
2022/05/30 06:46:44;;;;;;;4.53;3.20;;;16.90;99.90;;;;;;7387772;19;20149;-72
2022/05/30 06:49:09;;;;;;;3.47;2.78;;;16.80;99.90;;;;;;7388306;19;20130;-72
2022/05/30 06:51:36;;;;;;;4.05;3.05;;;17.20;99.90;;;;;;7391288;19;20157;-75
2022/05/30 06:54:03;;;;;;;6.18;2.65;;;17.70;99.90;;;;;;7391014;19;20624;-72
2022/05/30 06:56:34;;;;;;;7.07;2.80;;;17.90;99.90;;;;;;7387323;19;20142;-75
2022/05/30 06:59:00;;;;;;;7.35;2.75;;;17.90;99.90;;;;;;7389852;19;20143;-73
2022/05/30 07:01:33;;;;;;;3.17;2.85;;;17.70;99.90;;;;;;7383737;19;20141;-74
2022/05/30 07:03:59;;;;;;;5.28;2.33;;;17.50;99.90;;;;;;7390765;19;20499;-73
2022/05/30 07:06:28;;;;;;;3.47;2.45;;;17.60;99.90;;;;;;7385529;19;20143;-75
2022/05/30 07:08:54;;;;;;;4.00;2.97;;;17.40;99.90;;;;;;7387944;19;20626;-75
2022/05/30 07:11:22;;;;;;;3.50;2.40;;;17.20;99.90;;;;;;7386988;19;20183;-73
2022/05/30 07:13:48;;;;;;;4.53;2.25;;;17.30;99.90;;;;;;7394586;19;20525;-73
2022/05/30 07:16:15;;;;;;;4.15;2.30;;;17.50;99.90;;;;;;7395357;19;20170;-74
2022/05/30 07:18:45;;;;;;;2.05;1.48;;;17.90;99.90;;;;;;7395542;19;20146;-73
2022/05/30 07:21:13;;;;;;;2.63;1.83;;;18.60;99.90;;;;;;7391058;19;20146;-75
2022/05/30 07:23:39;;;;;;;3.72;2.05;;;18.90;99.50;;;;;;7394578;19;20145;-73
2022/05/30 07:26:08;;;;;;;3.15;2.35;;;18.60;99.30;;;;;;7396282;19;20139;-76
2022/05/30 07:28:35;;;;;;;3.90;2.20;;;18.10;99.90;;;;;;7396594;19;20505;-73
2022/05/30 07:31:06;;;;;;;2.97;2.15;;;18.00;99.80;;;;;;7394230;19;20152;-73
2022/05/30 07:33:33;;;;;;;3.60;2.63;;;18.00;99.60;;;;;;7397645;19;20503;-74
2022/05/30 07:35:59;;;;;;;2.10;1.52;;;18.00;99.60;;;;;;7395384;19;20138;-75
2022/05/30 07:38:26;;;;;;;6.15;1.90;;;18.20;99.10;;;;;;7395773;19;20126;-73
2022/05/30 07:40:52;;;;;;;1.58;1.48;;;18.10;99.10;;;;;;7391788;19;20171;-72
2022/05/30 07:43:18;;;;;;;2.95;1.83;;;17.90;99.20;;;;;;7395939;19;20135;-73
2022/05/30 07:45:44;;;;;;;1.95;1.70;;;18.00;98.70;;;;;;7394991;19;20155;-75
2022/05/30 07:48:10;;;;;;;2.85;1.90;;;18.20;98.70;;;;;;7393696;19;20153;-75
2022/05/30 07:50:37;;;;;;;4.20;1.73;;;18.50;98.80;;;;;;7395947;19;20146;-73
2022/05/30 07:53:04;;;;;;;4.53;2.20;;;18.50;98.90;;;;;;7395578;19;20155;-74
2022/05/30 07:55:30;;;;;;;3.03;1.70;;;18.40;99.20;;;;;;7391504;19;20218;-75
2022/05/30 07:58:04;;;;;;;2.22;1.50;;;18.60;99.00;;;;;;7395340;19;20495;-73
2022/05/30 08:00:33;;;;;;;1.70;1.60;;;18.70;98.30;;;;;;7393249;19;20158;-74
2022/05/30 08:02:59;;;;;;;1.80;1.60;;;18.60;98.10;;;;;;7391389;19;20142;-73
2022/05/30 08:05:26;;;;;;;3.67;1.73;;;18.70;98.00;;;;;;7391799;19;20158;-75
2022/05/30 08:07:53;;;;;;;2.47;1.80;;;18.60;98.00;;;;;;7392828;19;20143;-73
2022/05/30 08:10:23;;;;;;;1.77;1.52;;;18.90;97.60;;;;;;7395860;19;20138;-75
2022/05/30 08:12:49;;;;;;;3.45;1.40;;;19.30;97.00;;;;;;7393215;19;20163;-73
2022/05/30 08:15:16;;;;;;;1.60;1.10;;;19.40;96.50;;;;;;7392457;19;20131;-74
2022/05/30 08:17:42;;;;;;;1.92;1.13;;;19.60;95.60;;;;;;7390339;19;20222;-75
2022/05/30 08:20:11;;;;;;;2.70;1.30;;;19.70;95.10;;;;;;7392083;19;20235;-73
2022/05/30 08:22:38;;;;;;;3.38;1.30;;;19.60;95.30;;;;;;7391409;19;20180;-73
2022/05/30 08:25:07;;;;;;;1.17;1.08;;;19.40;94.80;;;;;;7390360;19;20158;-75
2022/05/30 08:27:33;;;;;;;2.00;1.00;;;19.50;94.40;;;;;;7391757;19;20233;-74
2022/05/30 08:29:59;;;;;;;3.10;1.30;;;19.80;94.20;;;;;;7393553;19;20189;-75
2022/05/30 08:32:32;;;;;;;3.63;0.90;;;20.10;93.80;;;;;;7390424;19;20194;-74
2022/05/30 08:34:59;;;;;;;1.73;1.08;;;20.50;93.00;;;;;;7393496;19;20492;-74
2022/05/30 08:37:30;;;;;;;2.08;1.30;;;20.80;92.00;;;;;;7391043;19;20146;-75
2022/05/30 08:42:44;;;;;;;2.20;1.50;;;20.80;91.60;;;;;;7393079;19;20554;-75
2022/05/30 08:45:15;;;;;;;1.77;1.20;;;20.50;92.20;;;;;;7392311;19;20660;-75
2022/05/30 08:47:58;;;;;;;2.45;0.85;;;20.20;91.20;;;;;;7392530;19;20151;-73
2022/05/30 08:50:46;;;;;;;1.70;1.00;;;20.20;91.30;;;;;;7386262;19;20669;-73
2022/05/30 08:53:30;;;;;;;3.97;1.30;;;19.80;90.60;;;;;;7392432;19;20176;-73
2022/05/30 08:56:10;;;;;;;2.53;1.02;;;19.50;91.70;;;;;;7390038;19;20218;-74
2022/05/30 08:59:11;;;;;;;2.50;0.80;;;19.30;92.20;;;;;;7393723;19;20143;-73
2022/05/30 09:01:45;;;;;;;1.10;1.00;;;19.10;92.10;;;;;;7389387;19;20486;-75
2022/05/30 09:04:20;;;;;;;4.97;1.50;;;18.70;92.70;;;;;;7392219;19;20158;-74
2022/05/30 09:06:56;;;;;;;1.98;1.10;;;18.50;92.90;;;;;;7394376;19;20146;-72
2022/05/30 09:09:22;;;;;;;1.45;1.20;;;18.90;93.00;;;;;;7390754;19;20158;-75
2022/05/30 09:11:57;;;;;;;1.77;1.00;;;18.80;92.30;;;;;;7393686;19;20154;-72
2022/05/30 09:14:34;;;;;;;1.50;1.00;;;19.00;92.00;;;;;;7391846;19;20139;-74
2022/05/30 09:17:04;;;;;;;1.80;1.13;;;19.00;90.60;;;;;;7387651;19;20252;-73
2022/05/30 09:19:30;;;;;;;2.05;1.30;;;18.90;90.50;;;;;;7389802;19;20530;-73
2022/05/30 09:22:01;;;;;;;0.80;0.80;;;18.70;91.90;;;;;;7389401;19;20130;-73
2022/05/30 09:24:32;;;;;;;2.15;1.10;;;18.60;92.10;;;;;;7391802;19;20144;-74
2022/05/30 09:27:00;;;;;;;2.08;1.17;;;18.60;92.20;;;;;;7392313;19;20134;-73
2022/05/30 09:29:36;;;;;;;1.65;1.48;;;18.60;92.20;;;;;;7389942;19;20127;-73
2022/05/30 09:32:46;;;;;;;3.22;1.08;;;18.70;92.40;;;;;;7391473;19;20130;-74
2022/05/30 09:35:21;;;;;;;2.30;1.35;;;18.60;91.60;;;;;;7387627;19;20134;-74
2022/05/30 09:38:08;;;;;;;2.10;1.38;;;18.30;91.50;;;;;;7388044;19;20143;-73
2022/05/30 09:40:39;;;;;;;3.05;1.33;;;18.40;91.60;;;;;;7389471;19;20227;-73
2022/05/30 09:43:07;;;;;;;4.57;1.40;;;18.20;90.90;;;;;;7387674;19;20150;-74
2022/05/30 09:45:33;;;;;;;2.35;1.20;;;17.90;91.00;;;;;;7389222;19;20160;-74
2022/05/30 09:48:01;;;;;;;2.17;0.90;;;17.60;90.60;;;;;;7390179;19;20138;-73
2022/05/30 09:50:28;;;;;;;2.20;1.20;;;17.40;91.10;;;;;;7389628;19;20130;-72
2022/05/30 09:52:54;;;;;;;2.03;0.90;;;17.40;91.10;;;;;;7391007;19;20171;-73
2022/05/30 09:55:37;;;;;;;1.73;0.90;;;17.40;90.20;;;;;;7388431;19;20570;-73
2022/05/30 09:58:05;;;;;;;1.85;1.20;;;17.70;90.10;;;;;;7390860;19;20739;-72
2022/05/30 10:00:53;;;;;;;1.63;1.05;;;18.00;88.30;;;;;;7390330;19;20161;-73
2022/05/30 10:03:29;;;;;;;2.88;1.08;;;18.00;87.80;;;;;;7391044;19;20178;-73
2022/05/30 10:06:17;;;;;;;1.10;0.77;;;18.20;89.50;;;;;;7389193;19;20146;-73
2022/05/30 10:08:44;;;;;;;0.50;0.50;;;18.30;86.20;;;;;;7388317;19;20138;-74
2022/05/30 10:11:32;;;;;;;4.95;3.78;;;18.60;82.40;;;;;;7389793;19;20138;-74
2022/05/30 10:13:58;;;;;;;2.05;0.88;;;19.00;84.20;;;;;;7389669;19;20157;-74
2022/05/30 10:16:35;;;;;;;1.23;0.80;;;19.20;81.00;;;;;;7387396;19;20185;-74
2022/05/30 10:19:05;;;;;;;1.98;1.02;;;19.30;82.70;;;;;;7385141;19;20151;-74
2022/05/30 10:30:46;;;;;;;5.82;2.10;;;18.60;84.80;;;;;;7386211;19;20151;-73
2022/05/30 10:33:29;;;;;;;3.97;1.63;;;18.90;82.70;;;;;;7388499;19;20215;-72
2022/05/30 10:36:14;;;;;;;2.15;0.95;;;19.10;82.60;;;;;;7390628;19;20146;-72
2022/05/30 10:39:02;;;;;;;1.85;0.75;;;19.00;82.50;;;;;;7389644;19;20134;-72
2022/05/30 10:41:43;;;;;;;0.98;0.73;;;19.10;82.40;;;;;;7394926;19;20894;-73
2022/05/30 10:44:13;;;;;;;1.05;0.85;;;19.10;80.20;;;;;;7388749;19;20150;-75
2022/05/30 10:46:51;;;;;;;2.30;0.80;;;19.00;81.40;;;;;;7387380;19;20131;-73
2022/05/30 10:49:22;;;;;;;2.08;0.98;;;19.10;80.40;;;;;;7389963;19;20142;-72
2022/05/30 10:52:13;;;;;;;1.67;0.80;;;19.30;79.30;;;;;;7389052;19;20154;-73
2022/05/30 10:54:43;;;;;;;0.50;0.40;;;19.40;78.40;;;;;;7389608;19;20134;-74
2022/05/30 10:57:35;;;;;;;3.10;1.13;;;19.50;73.30;;;;;;7389662;19;20210;-74
2022/05/30 11:00:13;;;;;;;4.35;2.60;;;19.50;78.00;;;;;;7386597;19;20147;-74
2022/05/30 11:02:50;;;;;;;1.35;1.00;;;19.40;80.10;;;;;;7390348;19;20122;-74
2022/05/30 11:05:29;;;;;;;2.10;1.10;;;19.10;79.10;;;;;;7390512;19;20150;-73
2022/05/30 11:08:00;;;;;;;1.85;1.35;;;18.80;80.60;;;;;;7390076;19;20167;-74
2022/05/30 11:10:43;;;;;;;2.95;1.80;;;18.80;80.70;;;;;;7385567;19;20130;-73
2022/05/30 11:13:23;;;;;;;3.00;1.60;;;18.60;79.80;;;;;;7389043;19;20158;-72
2022/05/30 11:15:55;;;;;;;4.20;2.15;;;18.50;79.70;;;;;;7386028;19;20154;-74
2022/05/30 11:18:30;;;;;;;6.18;1.98;;;18.50;80.70;;;;;;7385732;19;20154;-73
2022/05/30 11:21:03;;;;;;;4.28;0.75;;;18.50;81.10;;;;;;7384225;19;20174;-72
2022/05/30 11:23:29;;;;;;;8.60;1.27;;;18.60;80.40;;;;;;7389688;19;20135;-73
2022/05/30 11:26:39;;;;;;;5.32;1.13;;;18.70;80.10;;;;;;7385535;19;20161;-73
2022/05/30 11:29:49;;;;;;;5.32;1.00;;;18.80;79.40;;;;;;7387712;19;20143;-73
2022/05/30 11:32:45;;;;;;;3.40;1.02;;;19.00;79.30;;;;;;7387777;19;20158;-74
2022/05/30 11:35:35;;;;;;;1.65;1.05;;;19.20;78.40;;;;;;7386766;19;20138;-75
2022/05/30 11:38:10;;;;;;;1.65;1.13;;;19.20;76.10;;;;;;7392061;19;20155;-73
2022/05/30 11:41:03;;;;;;;2.97;1.17;;;19.10;75.90;;;;;;7389719;19;20174;-72
2022/05/30 11:44:11;;;;;;;1.90;0.60;;;19.20;76.00;;;;;;7388806;19;20158;-71
2022/05/30 11:47:01;;;;;;;1.33;0.70;;;19.40;75.90;;;;;;7385907;19;20146;-74
2022/05/30 11:50:15;;;;;;;4.00;1.27;;;19.60;75.60;;;;;;7384643;19;20131;-72
2022/05/30 11:53:15;;;;;;;4.63;0.93;;;20.00;74.00;;;;;;7385201;19;20153;-74
2022/05/30 11:56:29;;;;;;;2.90;1.77;;;20.00;73.10;;;;;;7386465;19;20138;-73
2022/05/30 11:59:06;;;;;;;0.90;0.60;;;19.90;73.20;;;;;;7386149;19;20150;-73
2022/05/30 12:01:36;;;;;;;2.72;0.90;;;19.70;73.20;;;;;;7391800;19;20127;-73
2022/05/30 12:04:44;;;;;;;3.65;0.63;;;19.60;73.20;;;;;;7396323;19;20146;-73
2022/05/30 12:07:29;;;;;;;1.30;0.60;;;19.30;72.80;;;;;;7394766;19;20203;-73
2022/05/30 12:10:09;;;;;;;1.73;0.80;;;19.30;73.20;;;;;;7394195;19;20138;-73
2022/05/30 12:12:40;;;;;;;1.48;0.68;;;19.70;73.80;;;;;;7394412;19;20135;-72
2022/05/30 12:15:16;;;;;;;1.80;0.80;;;19.80;74.00;;;;;;7393332;19;20138;-74
2022/05/30 12:24:19;;;;;;;2.75;0.63;;;19.60;73.40;;;;;;7394921;19;20156;-74
2022/05/30 12:26:57;;;;;;;1.00;0.60;;;19.40;73.30;;;;;;7393375;19;20143;-72
2022/05/30 12:29:43;;;;;;;0.95;0.80;;;19.30;74.10;;;;;;7394986;19;20142;-73
2022/05/30 12:32:17;;;;;;;1.70;0.80;;;19.20;73.00;;;;;;7396133;19;20168;-73
2022/05/30 12:35:32;;;;;;;1.83;1.15;;;19.00;73.80;;;;;;7393120;19;20134;-72
2022/05/30 12:37:58;;;;;;;1.75;0.85;;;19.00;74.40;;;;;;7392755;19;20959;-74
2022/05/30 12:40:24;;;;;;;3.35;1.00;;;19.10;75.00;;;;;;7390076;19;20159;-73
2022/05/30 12:43:02;;;;;;;5.72;2.20;;;19.20;75.00;;;;;;7393382;19;20142;-74
2022/05/30 12:45:37;;;;;;;1.50;1.05;;;19.50;74.60;;;;;;7394004;19;20145;-73
2022/05/30 12:48:47;;;;;;;1.63;1.33;;;19.60;73.60;;;;;;7390307;19;20154;-75
2022/05/30 12:51:22;;;;;;;0.73;0.65;;;19.80;72.90;;;;;;7392262;19;20589;-74
2022/05/30 12:53:57;;;;;;;2.42;1.20;;;19.90;73.30;;;;;;7395939;19;20148;-73
2022/05/30 12:56:38;;;;;;;1.20;0.88;;;20.00;72.20;;;;;;7391253;19;20201;-73
2022/05/30 12:59:19;;;;;;;0.90;0.70;;;20.10;71.80;;;;;;7391315;19;20601;-72
2022/05/30 13:01:44;;;;;;;1.63;0.85;;;20.00;71.50;;;;;;7392306;19;20134;-72
2022/05/30 13:04:16;;;;;;;2.17;1.27;;;19.90;71.30;;;;;;7391130;19;20146;-72
2022/05/30 13:06:43;;;;;;;1.88;1.10;;;19.90;71.50;;;;;;7391642;19;20126;-72
2022/05/30 13:09:33;;;;;;;1.23;0.70;;;20.30;71.00;;;;;;7391201;19;20230;-74
2022/05/30 13:12:11;;;;;;;1.83;0.75;;;20.20;69.60;;;;;;7389232;19;20605;-74
2022/05/30 13:14:39;;;;;;;1.65;0.70;;;20.00;69.30;;;;;;7391074;19;20180;-73
2022/05/30 13:17:23;;;;;;;1.38;0.70;;;19.70;69.80;;;;;;7391476;19;20154;-73
2022/05/30 13:19:58;;;;;;;1.30;0.90;;;19.70;69.90;;;;;;7394272;19;20142;-73
2022/05/30 13:22:33;;;;;;;0.95;0.70;;;19.60;70.40;;;;;;7392651;19;20142;-73
2022/05/30 13:24:59;;;;;;;3.53;1.40;;;19.60;69.60;;;;;;7394752;19;20133;-74
2022/05/30 13:27:27;;;;;;;2.25;0.90;;;19.50;71.20;;;;;;7390401;19;20138;-73
2022/05/30 13:29:53;;;;;;;1.10;0.73;;;19.50;70.00;;;;;;7390657;19;20142;-74
2022/05/30 13:32:21;;;;;;;1.23;1.00;;;19.50;70.20;;;;;;7390057;19;20182;-74
2022/05/30 13:34:51;;;;;;;1.30;0.98;;;19.20;69.20;;;;;;7387008;19;20150;-73
2022/05/30 13:37:33;;;;;;;1.52;0.80;;;19.40;69.90;;;;;;7393970;19;20133;-73
2022/05/30 13:40:03;;;;;;;1.95;0.82;;;19.70;69.50;;;;;;7392073;19;20601;-71
2022/05/30 13:42:45;;;;;;;0.93;0.75;;;19.80;70.90;;;;;;7389699;19;20130;-73